createdAt,value
2019-02-10T00:00:37.173Z,11.44
2019-02-10T00:01:36.874Z,11.54
2019-02-10T00:02:37.006Z,11.60
2019-02-10T00:03:36.845Z,11.66
2019-02-10T00:04:36.954Z,11.64
2019-02-10T00:05:36.823Z,11.60
2019-02-10T00:06:36.811Z,11.57
2019-02-10T00:07:36.885Z,11.62
2019-02-10T00:08:36.785Z,11.67
2019-02-10T00:09:36.997Z,11.70
2019-02-10T00:10:36.856Z,11.64
2019-02-10T00:11:36.834Z,11.62
2019-02-10T00:12:36.801Z,11.57
2019-02-10T00:13:37.011Z,11.62
2019-02-10T00:14:36.721Z,11.53
2019-02-10T00:15:36.709Z,11.64
2019-02-10T00:16:36.707Z,11.62
2019-02-10T00:17:36.698Z,11.60
2019-02-10T00:18:36.678Z,11.64
2019-02-10T00:19:36.668Z,11.62
2019-02-10T00:20:36.654Z,11.64
2019-02-10T00:21:36.654Z,11.54
2019-02-10T00:22:36.648Z,11.66
2019-02-10T00:23:36.622Z,11.66
2019-02-10T00:24:36.613Z,11.64
2019-02-10T00:25:36.598Z,11.66
2019-02-10T00:26:36.587Z,11.75
2019-02-10T00:27:36.599Z,11.69
2019-02-10T00:28:36.566Z,11.57
2019-02-10T00:29:36.553Z,11.44
2019-02-10T00:30:36.554Z,11.38
2019-02-10T00:31:36.534Z,11.24
2019-02-10T00:32:36.535Z,11.28
2019-02-10T00:33:36.520Z,11.17
2019-02-10T00:34:36.499Z,11.23
2019-02-10T00:35:36.491Z,11.24
2019-02-10T00:36:36.480Z,11.45
2019-02-10T00:37:36.482Z,11.51
2019-02-10T00:38:36.457Z,11.57
2019-02-10T00:39:36.450Z,11.53
2019-02-10T00:40:36.437Z,11.56
2019-02-10T00:41:36.426Z,11.56
2019-02-10T00:42:36.428Z,11.56
2019-02-10T00:43:36.404Z,11.49
2019-02-10T00:44:36.393Z,11.38
2019-02-10T00:45:36.382Z,11.27
2019-02-10T00:46:36.370Z,11.19
2019-02-10T00:47:36.375Z,11.21
2019-02-10T00:48:36.347Z,11.13
2019-02-10T00:49:36.336Z,11.11
2019-02-10T00:50:36.326Z,11.21
2019-02-10T00:51:36.323Z,11.38
2019-02-10T00:52:36.342Z,11.44
2019-02-10T00:53:36.310Z,11.45
2019-02-10T00:54:36.349Z,11.44
2019-02-10T00:55:36.281Z,11.31
2019-02-10T00:56:36.264Z,11.35
2019-02-10T00:57:36.527Z,11.31
2019-02-10T00:58:36.268Z,11.31
2019-02-10T00:59:36.274Z,11.38
2019-02-10T01:00:36.241Z,11.24
2019-02-10T01:01:36.215Z,11.13
2019-02-10T01:02:36.214Z,11.24
2019-02-10T01:03:36.235Z,11.23
2019-02-10T01:04:36.205Z,11.11
2019-02-10T01:05:36.238Z,11.06
2019-02-10T01:06:41.212Z,10.93
2019-02-10T01:07:37.154Z,10.81
2019-02-10T01:08:36.248Z,10.80
2019-02-10T01:09:36.224Z,10.80
2019-02-10T01:10:36.124Z,10.68
2019-02-10T01:11:36.130Z,10.75
2019-02-10T01:12:36.132Z,10.81
2019-02-10T01:13:36.222Z,10.88
2019-02-10T01:14:36.110Z,10.98
2019-02-10T01:15:36.099Z,11.06
2019-02-10T01:16:36.077Z,11.27
2019-02-10T01:17:36.044Z,11.46
2019-02-10T01:18:36.039Z,11.54
2019-02-10T01:19:36.070Z,11.48
2019-02-10T01:20:36.123Z,11.42
2019-02-10T01:21:36.031Z,11.30
2019-02-10T01:22:35.980Z,11.17
2019-02-10T01:23:35.995Z,11.24
2019-02-10T01:24:35.955Z,11.12
2019-02-10T01:25:35.944Z,11.20
2019-02-10T01:26:35.933Z,11.19
2019-02-10T01:27:35.927Z,11.46
2019-02-10T01:28:35.930Z,11.44
2019-02-10T01:29:35.918Z,11.56
2019-02-10T01:30:35.890Z,11.44
2019-02-10T01:31:35.895Z,11.30
2019-02-10T01:32:35.870Z,11.20
2019-02-10T01:33:35.884Z,11.23
2019-02-10T01:34:35.845Z,11.21
2019-02-10T01:35:35.836Z,11.20
2019-02-10T01:36:35.829Z,11.45
2019-02-10T01:37:35.814Z,11.60
2019-02-10T01:38:35.946Z,11.67
2019-02-10T01:39:35.800Z,11.66
2019-02-10T01:40:35.782Z,11.63
2019-02-10T01:41:35.769Z,11.75
2019-02-10T01:42:35.758Z,11.60
2019-02-10T01:43:35.920Z,11.78
2019-02-10T01:44:35.744Z,11.84
2019-02-10T01:45:35.726Z,11.88
2019-02-10T01:46:35.715Z,11.85
2019-02-10T01:47:35.707Z,11.90
2019-02-10T01:48:35.701Z,11.90
2019-02-10T01:49:35.710Z,11.94
2019-02-10T01:50:35.673Z,11.79
2019-02-10T01:51:35.662Z,11.77
2019-02-10T01:52:35.651Z,11.72
2019-02-10T01:53:35.642Z,11.59
2019-02-10T01:54:35.641Z,11.66
2019-02-10T01:55:35.617Z,11.67
2019-02-10T01:56:35.608Z,11.64
2019-02-10T01:57:35.604Z,11.67
2019-02-10T01:58:35.589Z,11.63
2019-02-10T01:59:35.587Z,11.67
2019-02-10T02:00:35.563Z,11.62
2019-02-10T02:01:35.553Z,11.56
2019-02-10T02:02:35.542Z,11.48
2019-02-10T02:03:35.532Z,11.57
2019-02-10T02:04:35.536Z,11.48
2019-02-10T02:05:35.508Z,11.44
2019-02-10T02:06:35.499Z,11.46
2019-02-10T02:07:35.495Z,11.35
2019-02-10T02:08:35.481Z,11.28
2019-02-10T02:09:35.479Z,11.13
2019-02-10T02:10:35.455Z,11.11
2019-02-10T02:11:35.446Z,11.02
2019-02-10T02:12:35.434Z,10.95
2019-02-10T02:13:36.523Z,10.86
2019-02-10T02:14:35.437Z,10.88
2019-02-10T02:15:35.399Z,10.73
2019-02-10T02:16:35.401Z,10.68
2019-02-10T02:17:35.384Z,10.63
2019-02-10T02:18:35.373Z,10.54
2019-02-10T02:19:35.358Z,10.38
2019-02-10T02:20:35.357Z,10.52
2019-02-10T02:21:35.334Z,10.60
2019-02-10T02:22:35.327Z,10.60
2019-02-10T02:23:35.314Z,10.60
2019-02-10T02:24:35.303Z,10.63
2019-02-10T02:25:35.322Z,10.72
2019-02-10T02:26:35.281Z,10.72
2019-02-10T02:27:35.270Z,10.83
2019-02-10T02:28:35.261Z,10.72
2019-02-10T02:29:35.254Z,10.63
2019-02-10T02:30:35.249Z,10.68
2019-02-10T02:31:35.240Z,10.60
2019-02-10T02:32:35.213Z,10.75
2019-02-10T02:33:35.203Z,10.66
2019-02-10T02:34:35.199Z,10.68
2019-02-10T02:35:35.198Z,10.54
2019-02-10T02:36:35.174Z,10.51
2019-02-10T02:37:35.165Z,10.60
2019-02-10T02:38:35.149Z,10.72
2019-02-10T02:39:35.142Z,10.63
2019-02-10T02:40:35.142Z,10.60
2019-02-10T02:41:35.116Z,10.60
2019-02-10T02:42:35.113Z,10.51
2019-02-10T02:43:35.097Z,10.51
2019-02-10T02:44:35.087Z,10.54
2019-02-10T02:45:35.090Z,10.65
2019-02-10T02:46:35.062Z,10.73
2019-02-10T02:47:35.076Z,10.76
2019-02-10T02:48:35.043Z,10.95
2019-02-10T02:49:35.036Z,11.09
2019-02-10T02:50:35.031Z,11.12
2019-02-10T02:51:35.011Z,11.19
2019-02-10T02:52:34.997Z,11.20
2019-02-10T02:53:34.986Z,11.16
2019-02-10T02:54:34.975Z,11.17
2019-02-10T02:55:34.981Z,11.13
2019-02-10T02:56:34.954Z,10.99
2019-02-10T02:57:34.944Z,10.90
2019-02-10T02:58:34.935Z,10.80
2019-02-10T02:59:34.943Z,10.63
2019-02-10T03:00:34.921Z,10.52
2019-02-10T03:01:34.904Z,10.38
2019-02-10T03:02:34.898Z,10.22
2019-02-10T03:03:34.882Z,10.16
2019-02-10T03:04:34.865Z,10.02
2019-02-10T03:05:34.892Z,9.93
2019-02-10T03:06:34.847Z,9.86
2019-02-10T03:07:34.833Z,9.73
2019-02-10T03:08:34.820Z,9.68
2019-02-10T03:09:34.815Z,9.50
2019-02-10T03:10:34.831Z,9.45
2019-02-10T03:11:34.789Z,9.35
2019-02-10T03:12:34.780Z,9.27
2019-02-10T03:13:34.770Z,9.19
2019-02-10T03:14:34.758Z,9.08
2019-02-10T03:15:34.829Z,9.08
2019-02-10T03:16:34.737Z,9.08
2019-02-10T03:17:34.728Z,8.96
2019-02-10T03:18:34.719Z,8.88
2019-02-10T03:19:34.711Z,8.83
2019-02-10T03:20:34.700Z,8.96
2019-02-10T03:21:34.693Z,8.86
2019-02-10T03:22:34.683Z,8.86
2019-02-10T03:23:34.664Z,8.82
2019-02-10T03:24:34.656Z,8.68
2019-02-10T03:25:34.637Z,8.67
2019-02-10T03:26:34.659Z,8.70
2019-02-10T03:27:34.715Z,8.70
2019-02-10T03:28:34.652Z,8.57
2019-02-10T03:29:34.596Z,8.60
2019-02-10T03:30:34.591Z,8.57
2019-02-10T03:31:34.608Z,8.50
2019-02-10T03:32:34.560Z,8.46
2019-02-10T03:33:34.551Z,8.46
2019-02-10T03:34:34.557Z,8.27
2019-02-10T03:35:34.538Z,8.43
2019-02-10T03:36:34.537Z,8.34
2019-02-10T03:37:34.508Z,8.40
2019-02-10T03:38:34.496Z,8.61
2019-02-10T03:39:34.521Z,8.68
2019-02-10T03:40:34.475Z,8.75
2019-02-10T03:41:34.494Z,8.98
2019-02-10T03:42:34.463Z,8.98
2019-02-10T03:43:34.453Z,9.06
2019-02-10T03:44:34.435Z,9.48
2019-02-10T03:45:34.426Z,9.71
2019-02-10T03:46:34.430Z,10.04
2019-02-10T03:47:34.434Z,10.10
2019-02-10T03:48:34.412Z,10.09
2019-02-10T03:49:34.377Z,10.14
2019-02-10T03:50:34.366Z,10.04
2019-02-10T03:51:34.366Z,10.17
2019-02-10T03:52:34.355Z,10.17
2019-02-10T03:53:34.339Z,10.09
2019-02-10T03:54:34.337Z,10.02
2019-02-10T03:55:34.343Z,10.09
2019-02-10T03:56:34.317Z,10.20
2019-02-10T03:57:34.307Z,10.06
2019-02-10T03:58:34.279Z,10.14
2019-02-10T03:59:34.281Z,10.22
2019-02-10T04:00:34.268Z,10.06
2019-02-10T04:01:34.271Z,10.11
2019-02-10T04:02:34.240Z,10.10
2019-02-10T04:03:34.224Z,10.25
2019-02-10T04:04:34.216Z,10.13
2019-02-10T04:05:34.213Z,10.17
2019-02-10T04:06:34.203Z,10.02
2019-02-10T04:07:36.109Z,10.02
2019-02-10T04:08:34.172Z,10.04
2019-02-10T04:09:34.165Z,10.01
2019-02-10T04:10:34.153Z,10.02
2019-02-10T04:11:34.148Z,9.93
2019-02-10T04:12:34.181Z,9.89
2019-02-10T04:13:34.124Z,9.89
2019-02-10T04:14:34.126Z,9.71
2019-02-10T04:15:34.101Z,9.73
2019-02-10T04:16:34.098Z,9.68
2019-02-10T04:17:34.074Z,9.65
2019-02-10T04:18:34.064Z,9.62
2019-02-10T04:19:34.054Z,9.60
2019-02-10T04:20:34.044Z,9.52
2019-02-10T04:21:34.042Z,9.59
2019-02-10T04:22:34.028Z,9.83
2019-02-10T04:23:34.008Z,9.78
2019-02-10T04:24:34.005Z,9.86
2019-02-10T04:25:33.992Z,9.86
2019-02-10T04:26:33.987Z,9.74
2019-02-10T04:27:33.996Z,9.67
2019-02-10T04:28:33.962Z,9.77
2019-02-10T04:29:33.944Z,9.67
2019-02-10T04:30:33.934Z,9.67
2019-02-10T04:31:33.947Z,9.48
2019-02-10T04:32:33.907Z,9.40
2019-02-10T04:33:33.897Z,9.27
2019-02-10T04:34:33.889Z,9.16
2019-02-10T04:35:33.878Z,9.13
2019-02-10T04:36:33.876Z,9.00
2019-02-10T04:37:33.857Z,8.94
2019-02-10T04:38:33.858Z,8.83
2019-02-10T04:39:33.836Z,8.68
2019-02-10T04:40:33.823Z,8.61
2019-02-10T04:41:33.828Z,8.61
2019-02-10T04:42:33.821Z,8.52
2019-02-10T04:43:33.810Z,8.34
2019-02-10T04:44:33.786Z,8.31
2019-02-10T04:45:33.765Z,8.13
2019-02-10T04:46:33.771Z,8.21
2019-02-10T04:47:33.748Z,8.18
2019-02-10T04:48:33.750Z,8.12
2019-02-10T04:49:33.724Z,8.12
2019-02-10T04:50:33.727Z,7.96
2019-02-10T04:51:33.737Z,7.86
2019-02-10T04:52:33.707Z,7.89
2019-02-10T04:53:33.682Z,7.71
2019-02-10T04:54:33.667Z,7.71
2019-02-10T04:55:33.655Z,7.73
2019-02-10T04:56:33.660Z,7.77
2019-02-10T04:57:33.668Z,7.71
2019-02-10T04:58:33.626Z,7.77
2019-02-10T04:59:33.621Z,7.52
2019-02-10T05:00:33.622Z,7.54
2019-02-10T05:01:33.606Z,7.39
2019-02-10T05:02:33.595Z,7.44
2019-02-10T05:03:33.570Z,7.39
2019-02-10T05:04:33.572Z,7.41
2019-02-10T05:05:33.553Z,7.37
2019-02-10T05:06:33.535Z,7.34
2019-02-10T05:07:33.538Z,7.27
2019-02-10T05:08:33.514Z,7.23
2019-02-10T05:09:33.506Z,7.24
2019-02-10T05:10:33.494Z,7.24
2019-02-10T05:11:33.481Z,7.23
2019-02-10T05:12:33.492Z,7.27
2019-02-10T05:13:33.473Z,7.24
2019-02-10T05:14:33.501Z,7.26
2019-02-10T05:15:33.442Z,7.50
2019-02-10T05:16:33.428Z,7.73
2019-02-10T05:17:33.432Z,7.94
2019-02-10T05:18:33.408Z,8.10
2019-02-10T05:19:33.395Z,8.29
2019-02-10T05:20:33.394Z,8.28
2019-02-10T05:21:33.376Z,8.34
2019-02-10T05:22:33.381Z,8.27
2019-02-10T05:23:33.357Z,8.29
2019-02-10T05:24:33.345Z,8.29
2019-02-10T05:25:33.331Z,8.14
2019-02-10T05:26:33.333Z,8.14
2019-02-10T05:27:33.327Z,7.95
2019-02-10T05:28:33.297Z,7.96
2019-02-10T05:29:33.308Z,7.82
2019-02-10T05:30:33.276Z,7.77
2019-02-10T05:31:33.268Z,7.66
2019-02-10T05:32:33.272Z,7.67
2019-02-10T05:33:33.279Z,7.66
2019-02-10T05:34:33.235Z,7.69
2019-02-10T05:35:33.226Z,7.62
2019-02-10T05:36:33.209Z,7.55
2019-02-10T05:37:33.240Z,7.62
2019-02-10T05:38:33.189Z,7.73
2019-02-10T05:39:33.183Z,7.92
2019-02-10T05:40:33.180Z,7.99
2019-02-10T05:41:33.158Z,8.04
2019-02-10T05:42:33.161Z,7.92
2019-02-10T05:43:33.158Z,7.94
2019-02-10T05:44:33.132Z,7.92
2019-02-10T05:45:33.133Z,7.96
2019-02-10T05:46:33.109Z,8.04
2019-02-10T05:47:33.112Z,8.03
2019-02-10T05:48:33.086Z,7.92
2019-02-10T05:49:33.081Z,7.95
2019-02-10T05:50:33.069Z,7.85
2019-02-10T05:51:33.050Z,7.85
2019-02-10T05:52:33.051Z,7.82
2019-02-10T05:53:33.042Z,8.03
2019-02-10T05:54:33.020Z,8.25
2019-02-10T05:55:33.021Z,8.39
2019-02-10T05:56:32.999Z,8.57
2019-02-10T05:57:33.023Z,8.65
2019-02-10T05:58:33.005Z,8.61
2019-02-10T05:59:32.969Z,8.67
2019-02-10T06:00:32.955Z,8.58
2019-02-10T06:01:32.960Z,8.60
2019-02-10T06:02:32.938Z,8.46
2019-02-10T06:03:32.946Z,8.42
2019-02-10T06:04:32.914Z,8.39
2019-02-10T06:05:32.905Z,8.43
2019-02-10T06:06:32.889Z,8.40
2019-02-10T06:07:32.897Z,8.47
2019-02-10T06:08:32.889Z,8.46
2019-02-10T06:09:32.864Z,8.46
2019-02-10T06:10:32.853Z,8.54
2019-02-10T06:11:32.835Z,8.58
2019-02-10T06:12:32.823Z,8.49
2019-02-10T06:13:32.834Z,8.47
2019-02-10T06:14:32.805Z,8.46
2019-02-10T06:15:32.796Z,8.50
2019-02-10T06:16:32.787Z,8.54
2019-02-10T06:17:32.784Z,8.61
2019-02-10T06:18:32.770Z,8.55
2019-02-10T06:19:32.749Z,8.50
2019-02-10T06:20:32.736Z,8.63
2019-02-10T06:21:32.728Z,8.63
2019-02-10T06:22:32.714Z,8.54
2019-02-10T06:23:32.715Z,8.58
2019-02-10T06:24:32.694Z,8.47
2019-02-10T06:25:32.697Z,8.61
2019-02-10T06:26:32.672Z,8.54
2019-02-10T06:27:32.660Z,8.58
2019-02-10T06:28:32.677Z,8.64
2019-02-10T06:29:32.640Z,8.64
2019-02-10T06:30:32.638Z,8.58
2019-02-10T06:31:32.624Z,8.64
2019-02-10T06:32:32.610Z,8.46
2019-02-10T06:33:32.622Z,8.58
2019-02-10T06:34:32.600Z,8.61
2019-02-10T06:35:32.579Z,8.50
2019-02-10T06:36:32.584Z,8.54
2019-02-10T06:37:32.557Z,8.45
2019-02-10T06:38:32.556Z,8.42
2019-02-10T06:39:32.533Z,8.42
2019-02-10T06:40:32.531Z,8.32
2019-02-10T06:41:32.511Z,8.27
2019-02-10T06:42:32.502Z,8.10
2019-02-10T06:43:32.525Z,8.12
2019-02-10T06:44:32.485Z,8.03
2019-02-10T06:45:32.469Z,7.95
2019-02-10T06:46:32.463Z,7.77
2019-02-10T06:47:32.449Z,7.88
2019-02-10T06:48:32.490Z,7.77
2019-02-10T06:49:32.449Z,7.66
2019-02-10T06:50:32.459Z,7.71
2019-02-10T06:51:32.416Z,7.66
2019-02-10T06:52:32.394Z,7.66
2019-02-10T06:53:32.443Z,7.73
2019-02-10T06:54:32.376Z,8.37
2019-02-10T06:55:32.363Z,8.73
2019-02-10T06:56:32.354Z,9.15
2019-02-10T06:57:32.345Z,9.63
2019-02-10T06:58:32.329Z,9.85
2019-02-10T06:59:32.336Z,10.11
2019-02-10T07:00:32.339Z,10.52
2019-02-10T07:01:32.301Z,10.72
2019-02-10T07:02:32.286Z,11.02
2019-02-10T07:03:32.277Z,11.16
2019-02-10T07:04:32.280Z,11.28
2019-02-10T07:05:32.281Z,11.31
2019-02-10T07:06:32.259Z,11.27
2019-02-10T07:07:32.256Z,11.19
2019-02-10T07:08:32.235Z,11.46
2019-02-10T07:09:32.227Z,11.53
2019-02-10T07:10:32.199Z,11.62
2019-02-10T07:11:32.196Z,11.77
2019-02-10T07:12:32.177Z,11.75
2019-02-10T07:13:32.165Z,11.77
2019-02-10T07:14:32.184Z,11.97
2019-02-10T07:15:32.163Z,12.05
2019-02-10T07:16:32.138Z,12.04
2019-02-10T07:17:32.128Z,12.22
2019-02-10T07:18:32.138Z,12.31
2019-02-10T07:19:32.112Z,12.38
2019-02-10T07:20:32.115Z,12.48
2019-02-10T07:21:32.130Z,12.48
2019-02-10T07:22:32.072Z,12.58
2019-02-10T07:23:32.078Z,12.54
2019-02-10T07:24:32.059Z,12.79
2019-02-10T07:25:32.057Z,12.84
2019-02-10T07:26:32.028Z,12.98
2019-02-10T07:27:32.028Z,12.94
2019-02-10T07:28:32.003Z,13.01
2019-02-10T07:29:32.011Z,13.10
2019-02-10T07:30:31.989Z,13.13
2019-02-10T07:31:31.970Z,13.09
2019-02-10T07:32:31.959Z,13.04
2019-02-10T07:33:32.000Z,13.06
2019-02-10T07:34:31.958Z,13.06
2019-02-10T07:35:31.960Z,13.17
2019-02-10T07:36:31.924Z,13.19
2019-02-10T07:37:31.932Z,13.25
2019-02-10T07:38:38.538Z,13.28
2019-02-10T07:39:32.886Z,13.28
2019-02-10T07:40:31.893Z,13.54
2019-02-10T07:41:31.866Z,13.61
2019-02-10T07:42:31.900Z,13.55
2019-02-10T07:43:31.849Z,13.61
2019-02-10T07:44:31.828Z,13.57
2019-02-10T07:45:31.840Z,13.73
2019-02-10T07:46:31.807Z,13.66
2019-02-10T07:47:31.802Z,13.61
2019-02-10T07:48:31.812Z,13.62
2019-02-10T07:49:31.792Z,13.66
2019-02-10T07:50:31.795Z,13.68
2019-02-10T07:51:31.764Z,13.61
2019-02-10T07:52:31.750Z,13.68
2019-02-10T07:53:31.731Z,13.76
2019-02-10T07:54:31.742Z,13.73
2019-02-10T07:55:31.730Z,13.73
2019-02-10T07:56:31.710Z,13.81
2019-02-10T07:57:31.698Z,13.80
2019-02-10T07:58:31.699Z,13.84
2019-02-10T07:59:31.679Z,13.90
2019-02-10T08:00:31.691Z,13.94
2019-02-10T08:01:31.643Z,14.08
2019-02-10T08:02:31.649Z,14.24
2019-02-10T08:03:31.621Z,14.26
2019-02-10T08:04:31.612Z,14.27
2019-02-10T08:05:31.669Z,14.36
2019-02-10T08:06:31.589Z,14.39
2019-02-10T08:07:31.579Z,14.42
2019-02-10T08:08:31.605Z,14.57
2019-02-10T08:09:31.601Z,14.49
2019-02-10T08:10:31.580Z,14.38
2019-02-10T08:11:31.546Z,14.42
2019-02-10T08:12:31.527Z,14.36
2019-02-10T08:13:33.169Z,14.29
2019-02-10T08:14:31.507Z,14.27
2019-02-10T08:15:31.490Z,14.26
2019-02-10T08:16:31.501Z,14.21
2019-02-10T08:17:31.469Z,14.30
2019-02-10T08:18:31.485Z,14.26
2019-02-10T08:19:31.446Z,14.30
2019-02-10T08:20:31.436Z,14.21
2019-02-10T08:21:31.438Z,14.31
2019-02-10T08:22:31.414Z,14.24
2019-02-10T08:23:31.446Z,14.30
2019-02-10T08:24:31.393Z,14.26
2019-02-10T08:25:31.388Z,14.29
2019-02-10T08:26:31.390Z,14.27
2019-02-10T08:27:31.359Z,14.27
2019-02-10T08:28:31.345Z,14.27
2019-02-10T08:29:31.426Z,14.44
2019-02-10T08:30:32.302Z,14.42
2019-02-10T08:31:31.741Z,14.63
2019-02-10T08:32:32.312Z,14.69
2019-02-10T08:33:31.364Z,14.74
2019-02-10T08:34:31.366Z,14.83
2019-02-10T08:35:31.294Z,14.79
2019-02-10T08:36:31.294Z,14.87
2019-02-10T08:37:31.249Z,14.95
2019-02-10T08:38:31.238Z,14.91
2019-02-10T08:39:31.239Z,14.93
2019-02-10T08:40:31.218Z,14.90
2019-02-10T08:41:31.234Z,14.91
2019-02-10T08:42:31.202Z,14.93
2019-02-10T08:43:31.203Z,15.03
2019-02-10T08:44:31.173Z,15.05
2019-02-10T08:45:31.162Z,14.91
2019-02-10T08:46:31.165Z,15.01
2019-02-10T08:47:33.695Z,15.01
2019-02-10T08:48:31.156Z,14.91
2019-02-10T08:49:31.120Z,14.90
2019-02-10T08:50:31.172Z,14.95
2019-02-10T08:51:31.135Z,14.94
2019-02-10T08:52:31.084Z,14.98
2019-02-10T08:53:31.100Z,14.94
2019-02-10T08:54:31.080Z,15.01
2019-02-10T08:55:31.053Z,15.07
2019-02-10T08:56:31.043Z,15.11
2019-02-10T08:57:31.043Z,15.16
2019-02-10T08:58:31.030Z,15.22
2019-02-10T08:59:31.010Z,15.23
2019-02-10T09:00:31.001Z,15.37
2019-02-10T09:01:31.034Z,15.33
2019-02-10T09:02:30.997Z,15.40
2019-02-10T09:03:31.015Z,15.70
2019-02-10T09:04:30.955Z,15.85
2019-02-10T09:05:30.963Z,16.01
2019-02-10T09:06:31.457Z,16.08
2019-02-10T09:07:30.936Z,15.99
2019-02-10T09:08:30.925Z,16.07
2019-02-10T09:09:30.930Z,16.07
2019-02-10T09:10:30.889Z,16.10
2019-02-10T09:11:30.893Z,16.17
2019-02-10T09:12:30.887Z,16.50
2019-02-10T09:13:30.887Z,16.90
2019-02-10T09:14:30.844Z,17.17
2019-02-10T09:15:30.837Z,17.30
2019-02-10T09:16:30.822Z,17.42
2019-02-10T09:17:30.828Z,17.55
2019-02-10T09:18:30.817Z,17.35
2019-02-10T09:19:30.814Z,17.15
2019-02-10T09:20:30.808Z,16.57
2019-02-10T09:21:30.773Z,16.06
2019-02-10T09:22:30.773Z,15.99
2019-02-10T09:23:30.742Z,15.92
2019-02-10T09:24:30.804Z,16.16
2019-02-10T09:25:30.866Z,16.29
2019-02-10T09:26:31.099Z,16.57
2019-02-10T09:27:30.725Z,16.59
2019-02-10T09:28:30.697Z,16.70
2019-02-10T09:29:30.711Z,16.67
2019-02-10T09:30:30.674Z,16.51
2019-02-10T09:31:30.658Z,16.13
2019-02-10T09:32:30.690Z,16.08
2019-02-10T09:33:30.631Z,15.81
2019-02-10T09:34:30.678Z,15.77
2019-02-10T09:35:30.616Z,15.66
2019-02-10T09:36:30.600Z,15.67
2019-02-10T09:37:30.635Z,15.76
2019-02-10T09:38:30.586Z,15.86
2019-02-10T09:39:30.601Z,15.95
2019-02-10T09:40:30.566Z,16.08
2019-02-10T09:41:30.546Z,16.45
2019-02-10T09:42:30.546Z,16.47
2019-02-10T09:43:30.523Z,16.41
2019-02-10T09:44:30.517Z,16.27
2019-02-10T09:45:30.497Z,16.36
2019-02-10T09:46:30.504Z,16.08
2019-02-10T09:47:30.521Z,15.96
2019-02-10T09:48:30.465Z,15.91
2019-02-10T09:49:30.460Z,15.88
2019-02-10T09:50:30.471Z,15.85
2019-02-10T09:51:30.431Z,15.81
2019-02-10T09:52:30.432Z,15.66
2019-02-10T09:53:30.408Z,15.64
2019-02-10T09:54:30.397Z,15.66
2019-02-10T09:55:30.389Z,15.67
2019-02-10T09:56:30.387Z,15.66
2019-02-10T09:57:30.385Z,15.70
2019-02-10T09:58:30.370Z,15.62
2019-02-10T09:59:30.356Z,15.59
2019-02-10T10:00:30.344Z,15.52
2019-02-10T10:01:30.341Z,15.62
2019-02-10T10:02:30.366Z,15.60
2019-02-10T10:03:30.298Z,15.74
2019-02-10T10:04:30.289Z,15.81
2019-02-10T10:05:30.275Z,15.91
2019-02-10T10:06:30.265Z,15.95
2019-02-10T10:07:30.272Z,16.06
2019-02-10T10:08:30.281Z,16.14
2019-02-10T10:09:30.227Z,16.11
2019-02-10T10:10:30.361Z,16.06
2019-02-10T10:11:30.209Z,15.96
2019-02-10T10:12:30.216Z,15.85
2019-02-10T10:13:30.200Z,15.96
2019-02-10T10:14:31.038Z,16.03
2019-02-10T10:15:30.165Z,16.10
2019-02-10T10:16:30.165Z,16.06
2019-02-10T10:17:30.138Z,16.18
2019-02-10T10:18:30.143Z,16.27
2019-02-10T10:19:30.116Z,16.16
2019-02-10T10:20:30.108Z,16.13
2019-02-10T10:21:30.110Z,16.54
2019-02-10T10:22:30.085Z,16.65
2019-02-10T10:23:30.097Z,16.73
2019-02-10T10:24:30.071Z,16.84
2019-02-10T10:25:30.065Z,16.77
2019-02-10T10:26:30.059Z,16.72
2019-02-10T10:27:30.041Z,16.57
2019-02-10T10:28:30.110Z,16.30
2019-02-10T10:29:30.008Z,16.03
2019-02-10T10:30:29.996Z,15.96
2019-02-10T10:31:30.028Z,15.81
2019-02-10T10:32:29.980Z,15.73
2019-02-10T10:33:30.200Z,15.66
2019-02-10T10:34:29.954Z,15.53
2019-02-10T10:35:29.950Z,15.44
2019-02-10T10:36:29.938Z,15.48
2019-02-10T10:37:29.943Z,15.37
2019-02-10T10:38:29.925Z,15.71
2019-02-10T10:39:29.899Z,15.76
2019-02-10T10:40:29.908Z,15.74
2019-02-10T10:41:29.884Z,15.60
2019-02-10T10:42:29.874Z,15.58
2019-02-10T10:43:30.029Z,15.49
2019-02-10T10:44:29.863Z,15.33
2019-02-10T10:45:29.961Z,15.19
2019-02-10T11:59:04.171Z,38.79
2019-02-10T12:03:16.704Z,15.35
2019-02-10T12:04:16.513Z,14.17
2019-02-10T12:05:16.501Z,13.36
2019-02-10T12:06:16.480Z,12.77
2019-02-10T12:07:16.474Z,12.41
2019-02-10T12:08:16.478Z,12.12
2019-02-10T12:09:16.448Z,11.93
2019-02-10T12:10:16.481Z,11.67
2019-02-10T12:11:16.436Z,11.66
2019-02-10T12:12:16.418Z,11.62
2019-02-10T12:13:16.403Z,11.56
2019-02-10T12:14:16.393Z,11.49
2019-02-10T12:15:16.393Z,11.45
2019-02-10T12:16:16.378Z,11.46
2019-02-10T12:17:16.361Z,11.44
2019-02-10T12:18:16.350Z,11.62
2019-02-10T12:19:16.339Z,11.44
2019-02-10T12:20:16.626Z,11.30
2019-02-10T12:21:16.316Z,11.28
2019-02-10T12:22:16.309Z,11.17
2019-02-10T12:23:16.295Z,11.08
2019-02-10T12:24:16.286Z,10.99
2019-02-10T12:25:16.271Z,10.86
2019-02-10T12:26:16.274Z,10.91
2019-02-10T12:27:16.258Z,10.83
2019-02-10T12:28:16.259Z,10.78
2019-02-10T12:29:16.239Z,10.72
2019-02-10T12:30:16.217Z,10.60
2019-02-10T12:31:16.220Z,10.65
2019-02-10T12:32:16.196Z,10.63
2019-02-10T12:33:16.491Z,10.65
2019-02-10T12:34:16.181Z,10.65
2019-02-10T12:35:16.165Z,10.46
2019-02-10T12:36:16.170Z,10.51
2019-02-10T12:37:16.147Z,10.42
2019-02-10T12:38:16.168Z,10.38
2019-02-10T12:39:16.173Z,10.29
2019-02-10T12:40:16.121Z,10.32
2019-02-10T12:41:16.110Z,10.39
2019-02-10T12:42:16.091Z,10.43
2019-02-10T12:43:16.078Z,10.35
2019-02-10T12:44:16.073Z,10.22
2019-02-10T12:45:16.056Z,10.25
2019-02-10T12:46:16.303Z,10.17
2019-02-10T12:47:16.262Z,10.16
2019-02-10T12:48:16.023Z,10.13
2019-02-10T12:49:16.011Z,10.07
2019-02-10T12:50:16.187Z,10.01
2019-02-10T12:51:16.245Z,10.09
2019-02-10T12:52:15.982Z,10.20
2019-02-10T12:53:15.968Z,10.17
2019-02-10T12:54:15.956Z,10.22
2019-02-10T12:55:15.947Z,10.26
2019-02-10T12:56:15.952Z,10.42
2019-02-10T12:57:15.924Z,10.20
2019-02-10T12:58:15.915Z,10.43
2019-02-10T12:59:15.906Z,10.36
2019-02-10T13:00:15.892Z,10.35
2019-02-10T13:01:15.922Z,10.43
2019-02-10T13:02:15.871Z,10.31
2019-02-10T13:03:15.929Z,10.26
2019-02-10T13:04:15.854Z,10.44
2019-02-10T13:05:15.844Z,10.31
2019-02-10T13:06:15.841Z,10.26
2019-02-10T13:07:15.823Z,10.34
2019-02-10T13:08:15.807Z,10.34
2019-02-10T13:09:15.796Z,10.34
2019-02-10T13:10:17.997Z,10.47
2019-02-10T13:11:15.795Z,10.38
2019-02-10T13:12:15.769Z,10.43
2019-02-10T13:13:19.324Z,10.34
2019-02-10T13:14:15.742Z,10.18
2019-02-10T13:15:15.735Z,10.28
2019-02-10T13:16:15.754Z,10.29
2019-02-10T13:17:15.718Z,10.29
2019-02-10T13:18:15.702Z,10.31
2019-02-10T13:19:15.687Z,10.38
2019-02-10T13:20:15.677Z,10.58
2019-02-10T13:21:15.684Z,10.66
2019-02-10T13:22:15.662Z,10.88
2019-02-10T13:23:15.648Z,10.88
2019-02-10T13:24:15.639Z,10.90
2019-02-10T13:25:15.660Z,10.88
2019-02-10T13:26:15.655Z,10.86
2019-02-10T13:27:15.866Z,10.95
2019-02-10T13:28:15.640Z,10.95
2019-02-10T13:29:15.599Z,10.99
2019-02-10T13:30:15.594Z,10.94
2019-02-10T13:31:15.598Z,11.06
2019-02-10T13:32:15.548Z,11.11
2019-02-10T13:33:15.542Z,11.19
2019-02-10T13:34:17.771Z,11.09
2019-02-10T13:40:19.540Z,10.95
2019-02-10T13:41:37.587Z,10.98
2019-02-10T13:42:13.025Z,10.95
2019-02-10T13:43:09.130Z,10.94
2019-02-10T13:44:08.101Z,10.88
2019-02-10T13:45:08.089Z,10.76
2019-02-10T13:46:08.091Z,10.76
2019-02-10T13:47:08.125Z,10.93
2019-02-10T13:48:08.054Z,10.88
2019-02-10T13:49:08.055Z,10.86
2019-02-10T13:50:08.030Z,10.83
2019-02-10T13:51:08.087Z,10.83
2019-02-10T13:52:08.054Z,10.70
2019-02-10T13:53:09.105Z,10.80
2019-02-10T13:54:07.987Z,10.73
2019-02-10T13:55:07.987Z,10.83
2019-02-10T13:56:07.988Z,10.78
2019-02-10T13:57:07.958Z,10.73
2019-02-10T13:58:07.948Z,10.70
2019-02-10T13:59:07.983Z,10.69
2019-02-10T14:00:07.922Z,10.75
2019-02-10T14:01:07.925Z,10.80
2019-02-10T14:02:07.921Z,10.76
2019-02-10T14:03:07.910Z,10.75
2019-02-10T14:04:07.886Z,10.87
2019-02-10T14:05:07.868Z,10.90
2019-02-10T14:06:07.900Z,10.75
2019-02-10T14:07:07.849Z,10.70
2019-02-10T14:08:07.849Z,10.60
2019-02-10T14:09:07.837Z,10.57
2019-02-10T14:10:07.868Z,10.52
2019-02-10T14:11:07.867Z,10.49
2019-02-10T14:12:07.819Z,10.58
2019-02-10T14:13:07.802Z,10.58
2019-02-10T14:14:07.807Z,10.52
2019-02-10T14:15:07.815Z,10.58
2019-02-10T14:16:07.769Z,10.66
2019-02-10T14:17:07.774Z,10.66
2019-02-10T14:18:07.741Z,10.68
2019-02-10T14:19:07.765Z,10.47
2019-02-10T14:20:07.720Z,10.49